sensor_id;sensor_type;location;lat;lon;timestamp;pressure;altitude;pressure_sealevel;temperature;humidity
21824;BME280;11074;48.596;9.238;2023-05-03T00:00:16;99010.63;;;12.21;79.91
21824;BME280;11074;48.596;9.238;2023-05-03T00:02:42;99013.22;;;12.16;79.03
21824;BME280;11074;48.596;9.238;2023-05-03T00:05:10;99010.69;;;12.09;78.76
21824;BME280;11074;48.596;9.238;2023-05-03T00:07:42;99011.25;;;12.11;78.58
21824;BME280;11074;48.596;9.238;2023-05-03T00:10:12;99022.44;;;12.08;78.50
21824;BME280;11074;48.596;9.238;2023-05-03T00:12:41;99016.78;;;12.05;78.53
21824;BME280;11074;48.596;9.238;2023-05-03T00:15:08;99014.00;;;12.00;78.68
21824;BME280;11074;48.596;9.238;2023-05-03T00:17:36;99015.28;;;11.97;78.37
21824;BME280;11074;48.596;9.238;2023-05-03T00:20:03;99017.47;;;12.00;79.31
21824;BME280;11074;48.596;9.238;2023-05-03T00:22:29;99015.63;;;12.01;79.53
21824;BME280;11074;48.596;9.238;2023-05-03T00:24:55;99013.09;;;11.94;77.79
21824;BME280;11074;48.596;9.238;2023-05-03T00:27:21;99009.59;;;11.94;77.97
21824;BME280;11074;48.596;9.238;2023-05-03T00:29:50;99020.78;;;11.91;78.77
21824;BME280;11074;48.596;9.238;2023-05-03T00:32:20;99015.09;;;11.87;77.56
21824;BME280;11074;48.596;9.238;2023-05-03T00:34:53;99013.38;;;11.81;77.06
21824;BME280;11074;48.596;9.238;2023-05-03T00:37:19;99012.47;;;11.64;78.27
21824;BME280;11074;48.596;9.238;2023-05-03T00:39:45;99012.47;;;11.64;78.23
21824;BME280;11074;48.596;9.238;2023-05-03T00:42:11;99014.81;;;11.72;79.00
21824;BME280;11074;48.596;9.238;2023-05-03T00:44:37;99003.13;;;11.67;78.48
21824;BME280;11074;48.596;9.238;2023-05-03T00:47:02;99008.75;;;11.65;78.27
21824;BME280;11074;48.596;9.238;2023-05-03T00:49:29;99012.00;;;11.67;78.62
21824;BME280;11074;48.596;9.238;2023-05-03T00:51:55;99004.09;;;11.72;79.32
21824;BME280;11074;48.596;9.238;2023-05-03T00:54:22;99001.41;;;11.72;79.83
21824;BME280;11074;48.596;9.238;2023-05-03T00:56:47;98999.19;;;11.69;79.29
21824;BME280;11074;48.596;9.238;2023-05-03T00:59:13;99009.44;;;11.72;79.26
21824;BME280;11074;48.596;9.238;2023-05-03T01:01:39;99007.00;;;11.71;79.19
21824;BME280;11074;48.596;9.238;2023-05-03T01:04:05;99002.09;;;11.68;78.49
21824;BME280;11074;48.596;9.238;2023-05-03T01:12:52;99008.97;;;11.64;79.53
21824;BME280;11074;48.596;9.238;2023-05-03T01:15:43;99008.53;;;11.55;78.87
21824;BME280;11074;48.596;9.238;2023-05-03T01:18:16;99008.06;;;11.58;79.60
21824;BME280;11074;48.596;9.238;2023-05-03T01:20:47;99002.69;;;11.58;79.48
21824;BME280;11074;48.596;9.238;2023-05-03T01:23:50;99006.66;;;11.55;78.74
21824;BME280;11074;48.596;9.238;2023-05-03T01:26:26;99005.63;;;11.56;78.47
21824;BME280;11074;48.596;9.238;2023-05-03T01:28:53;99003.16;;;11.55;78.55
21824;BME280;11074;48.596;9.238;2023-05-03T01:31:49;98998.06;;;11.53;77.68
21824;BME280;11074;48.596;9.238;2023-05-03T01:34:32;98992.59;;;11.48;77.82
21824;BME280;11074;48.596;9.238;2023-05-03T01:37:03;98990.66;;;11.44;77.84
21824;BME280;11074;48.596;9.238;2023-05-03T01:39:53;98992.63;;;11.37;77.14
21824;BME280;11074;48.596;9.238;2023-05-03T01:42:23;98993.22;;;11.39;77.83
21824;BME280;11074;48.596;9.238;2023-05-03T01:44:49;98997.41;;;11.35;76.99
21824;BME280;11074;48.596;9.238;2023-05-03T01:47:15;98993.34;;;11.21;76.68
21824;BME280;11074;48.596;9.238;2023-05-03T01:49:41;98992.31;;;11.22;78.67
21824;BME280;11074;48.596;9.238;2023-05-03T01:52:07;98997.66;;;11.22;78.20
21824;BME280;11074;48.596;9.238;2023-05-03T01:54:33;98995.25;;;11.20;78.23
21824;BME280;11074;48.596;9.238;2023-05-03T01:56:58;98994.44;;;11.20;78.19
21824;BME280;11074;48.596;9.238;2023-05-03T01:59:24;98993.81;;;11.18;77.93
21824;BME280;11074;48.596;9.238;2023-05-03T02:01:49;98988.25;;;11.08;78.60
21824;BME280;11074;48.596;9.238;2023-05-03T02:04:15;98990.00;;;11.14;79.65
21824;BME280;11074;48.596;9.238;2023-05-03T02:06:41;98987.38;;;10.90;80.01
21824;BME280;11074;48.596;9.238;2023-05-03T02:09:06;98992.00;;;10.95;79.00
21824;BME280;11074;48.596;9.238;2023-05-03T02:11:32;98995.34;;;11.02;80.86
21824;BME280;11074;48.596;9.238;2023-05-03T02:13:58;98992.47;;;11.04;80.33
21824;BME280;11074;48.596;9.238;2023-05-03T02:16:24;98998.28;;;11.01;80.22
21824;BME280;11074;48.596;9.238;2023-05-03T02:18:50;98986.19;;;10.86;78.65
21824;BME280;11074;48.596;9.238;2023-05-03T02:21:16;98983.63;;;10.91;80.12
21824;BME280;11074;48.596;9.238;2023-05-03T02:23:42;98991.44;;;10.93;79.60
21824;BME280;11074;48.596;9.238;2023-05-03T02:26:07;98984.69;;;10.90;80.41
21824;BME280;11074;48.596;9.238;2023-05-03T02:28:33;98989.56;;;10.93;80.18
21824;BME280;11074;48.596;9.238;2023-05-03T02:30:59;98986.06;;;10.93;80.63
21824;BME280;11074;48.596;9.238;2023-05-03T02:33:25;98989.06;;;10.96;80.16
21824;BME280;11074;48.596;9.238;2023-05-03T02:35:50;98985.84;;;10.94;80.49
21824;BME280;11074;48.596;9.238;2023-05-03T02:38:16;98987.22;;;10.97;79.56
21824;BME280;11074;48.596;9.238;2023-05-03T02:40:42;98988.28;;;10.96;79.96
21824;BME280;11074;48.596;9.238;2023-05-03T02:43:08;98990.47;;;10.99;79.69
21824;BME280;11074;48.596;9.238;2023-05-03T02:45:34;98976.06;;;10.88;78.46
21824;BME280;11074;48.596;9.238;2023-05-03T02:48:01;98988.19;;;10.91;78.99
21824;BME280;11074;48.596;9.238;2023-05-03T02:50:27;98977.47;;;10.91;79.38
21824;BME280;11074;48.596;9.238;2023-05-03T02:52:52;98983.03;;;10.89;79.34
21824;BME280;11074;48.596;9.238;2023-05-03T02:55:18;98982.81;;;10.79;77.48
21824;BME280;11074;48.596;9.238;2023-05-03T02:57:44;98979.59;;;10.77;79.59
21824;BME280;11074;48.596;9.238;2023-05-03T03:00:10;98988.38;;;10.78;79.85
21824;BME280;11074;48.596;9.238;2023-05-03T03:02:39;98988.19;;;10.79;79.84
21824;BME280;11074;48.596;9.238;2023-05-03T03:05:06;98990.94;;;10.73;78.52
21824;BME280;11074;48.596;9.238;2023-05-03T03:07:33;98993.06;;;10.71;79.08
21824;BME280;11074;48.596;9.238;2023-05-03T03:09:59;98992.03;;;10.72;79.16
21824;BME280;11074;48.596;9.238;2023-05-03T03:12:25;98989.09;;;10.73;79.01
21824;BME280;11074;48.596;9.238;2023-05-03T03:14:53;98981.53;;;10.70;79.49
21824;BME280;11074;48.596;9.238;2023-05-03T03:17:19;98979.09;;;10.69;79.31
21824;BME280;11074;48.596;9.238;2023-05-03T03:19:45;98972.59;;;10.65;78.99
21824;BME280;11074;48.596;9.238;2023-05-03T03:22:10;98976.78;;;10.61;78.90
21824;BME280;11074;48.596;9.238;2023-05-03T03:24:36;98977.34;;;10.63;79.31
21824;BME280;11074;48.596;9.238;2023-05-03T03:27:02;98984.44;;;10.57;79.57
21824;BME280;11074;48.596;9.238;2023-05-03T03:29:33;98981.75;;;10.57;79.94
21824;BME280;11074;48.596;9.238;2023-05-03T03:32:00;98980.94;;;10.57;79.83
21824;BME280;11074;48.596;9.238;2023-05-03T03:34:25;98985.00;;;10.59;80.60
21824;BME280;11074;48.596;9.238;2023-05-03T03:36:51;98984.44;;;10.57;80.57
21824;BME280;11074;48.596;9.238;2023-05-03T03:39:17;98981.44;;;10.54;79.90
21824;BME280;11074;48.596;9.238;2023-05-03T03:41:43;98987.34;;;10.44;80.17
21824;BME280;11074;48.596;9.238;2023-05-03T03:44:08;98983.16;;;10.37;79.44
21824;BME280;11074;48.596;9.238;2023-05-03T03:46:34;98990.72;;;10.40;80.95
21824;BME280;11074;48.596;9.238;2023-05-03T03:49:00;98990.34;;;10.36;80.59
21824;BME280;11074;48.596;9.238;2023-05-03T03:51:25;99004.06;;;10.40;79.83
21824;BME280;11074;48.596;9.238;2023-05-03T03:53:51;98994.78;;;10.42;80.08
21824;BME280;11074;48.596;9.238;2023-05-03T03:56:17;98990.91;;;10.38;78.65
21824;BME280;11074;48.596;9.238;2023-05-03T03:58:43;98996.28;;;10.38;79.14
21824;BME280;11074;48.596;9.238;2023-05-03T04:01:09;98996.88;;;10.40;79.91
21824;BME280;11074;48.596;9.238;2023-05-03T04:03:35;98989.31;;;10.37;79.10
21824;BME280;11074;48.596;9.238;2023-05-03T04:06:00;98994.63;;;10.25;78.66
21824;BME280;11074;48.596;9.238;2023-05-03T04:08:26;98997.28;;;10.25;79.42
21824;BME280;11074;48.596;9.238;2023-05-03T04:10:52;99008.22;;;10.24;79.74
21824;BME280;11074;48.596;9.238;2023-05-03T04:13:17;99002.88;;;10.24;79.58
21824;BME280;11074;48.596;9.238;2023-05-03T04:15:43;99008.31;;;10.17;78.81
21824;BME280;11074;48.596;9.238;2023-05-03T04:18:09;99008.69;;;10.21;79.61
21824;BME280;11074;48.596;9.238;2023-05-03T04:20:34;99011.94;;;10.23;79.25
21824;BME280;11074;48.596;9.238;2023-05-03T04:23:01;99012.63;;;10.30;80.22
21824;BME280;11074;48.596;9.238;2023-05-03T04:25:26;99015.09;;;10.31;80.49
21824;BME280;11074;48.596;9.238;2023-05-03T04:27:52;99021.13;;;10.27;80.06
21824;BME280;11074;48.596;9.238;2023-05-03T04:30:18;99027.50;;;10.26;79.67
21824;BME280;11074;48.596;9.238;2023-05-03T04:32:44;99018.81;;;10.30;80.47
21824;BME280;11074;48.596;9.238;2023-05-03T04:35:10;99026.38;;;10.33;80.17
21824;BME280;11074;48.596;9.238;2023-05-03T04:37:38;99028.59;;;10.37;80.44
21824;BME280;11074;48.596;9.238;2023-05-03T04:40:05;99029.41;;;10.37;80.44
21824;BME280;11074;48.596;9.238;2023-05-03T04:42:33;99034.25;;;10.28;80.95
21824;BME280;11074;48.596;9.238;2023-05-03T04:44:59;99040.78;;;10.32;81.17
21824;BME280;11074;48.596;9.238;2023-05-03T04:47:28;99048.00;;;10.32;80.69
21824;BME280;11074;48.596;9.238;2023-05-03T04:49:54;99045.97;;;10.27;81.14
21824;BME280;11074;48.596;9.238;2023-05-03T04:52:19;99042.03;;;10.30;81.81
21824;BME280;11074;48.596;9.238;2023-05-03T04:54:45;99045.31;;;10.32;81.88
21824;BME280;11074;48.596;9.238;2023-05-03T04:57:11;99047.63;;;10.28;81.68
21824;BME280;11074;48.596;9.238;2023-05-03T04:59:36;99051.81;;;10.36;81.36
21824;BME280;11074;48.596;9.238;2023-05-03T05:02:02;99053.91;;;10.34;81.52
21824;BME280;11074;48.596;9.238;2023-05-03T05:04:28;99047.38;;;10.30;81.28
21824;BME280;11074;48.596;9.238;2023-05-03T05:06:53;99046.47;;;10.24;81.89
21824;BME280;11074;48.596;9.238;2023-05-03T05:09:22;99044.13;;;10.28;82.37
21824;BME280;11074;48.596;9.238;2023-05-03T05:11:48;99047.56;;;10.17;82.77
21824;BME280;11074;48.596;9.238;2023-05-03T05:14:14;99047.94;;;10.20;82.90
21824;BME280;11074;48.596;9.238;2023-05-03T05:16:40;99045.81;;;10.11;83.47
21824;BME280;11074;48.596;9.238;2023-05-03T05:19:07;99050.16;;;10.23;83.51
21824;BME280;11074;48.596;9.238;2023-05-03T05:21:32;99060.06;;;10.05;83.15
21824;BME280;11074;48.596;9.238;2023-05-03T05:23:58;99061.53;;;10.19;84.64
21824;BME280;11074;48.596;9.238;2023-05-03T05:26:25;99060.63;;;10.25;83.69
21824;BME280;11074;48.596;9.238;2023-05-03T05:28:52;99059.50;;;10.32;83.93
21824;BME280;11074;48.596;9.238;2023-05-03T05:31:17;99064.16;;;10.37;83.73
21824;BME280;11074;48.596;9.238;2023-05-03T05:33:43;99063.69;;;10.40;82.99
21824;BME280;11074;48.596;9.238;2023-05-03T05:36:09;99063.25;;;10.43;82.87
21824;BME280;11074;48.596;9.238;2023-05-03T05:38:35;99068.72;;;10.48;83.60
21824;BME280;11074;48.596;9.238;2023-05-03T05:41:01;99065.09;;;10.54;83.28
21824;BME280;11074;48.596;9.238;2023-05-03T05:43:27;99067.22;;;10.64;83.45
21824;BME280;11074;48.596;9.238;2023-05-03T05:45:53;99068.97;;;10.70;82.80
21824;BME280;11074;48.596;9.238;2023-05-03T05:48:19;99063.16;;;10.73;83.10
21824;BME280;11074;48.596;9.238;2023-05-03T05:50:44;99060.59;;;10.78;82.63
21824;BME280;11074;48.596;9.238;2023-05-03T05:53:10;99064.47;;;10.82;82.91
21824;BME280;11074;48.596;9.238;2023-05-03T05:55:36;99068.91;;;10.88;82.63
21824;BME280;11074;48.596;9.238;2023-05-03T05:58:02;99071.56;;;10.88;82.80
21824;BME280;11074;48.596;9.238;2023-05-03T06:00:28;99067.81;;;10.89;82.65
21824;BME280;11074;48.596;9.238;2023-05-03T06:02:55;99068.19;;;10.92;82.32
21824;BME280;11074;48.596;9.238;2023-05-03T06:05:21;99055.84;;;10.91;83.05
21824;BME280;11074;48.596;9.238;2023-05-03T06:07:48;99062.59;;;10.94;83.30
21824;BME280;11074;48.596;9.238;2023-05-03T06:10:14;99058.31;;;10.93;82.60
21824;BME280;11074;48.596;9.238;2023-05-03T06:12:40;99055.97;;;10.96;82.88
21824;BME280;11074;48.596;9.238;2023-05-03T06:15:06;99051.34;;;11.04;82.66
21824;BME280;11074;48.596;9.238;2023-05-03T06:17:33;99042.94;;;11.12;81.94
21824;BME280;11074;48.596;9.238;2023-05-03T06:19:59;99047.84;;;11.15;82.21
21824;BME280;11074;48.596;9.238;2023-05-03T06:22:25;99050.50;;;11.26;82.13
21824;BME280;11074;48.596;9.238;2023-05-03T06:24:51;99042.56;;;11.31;81.54
21824;BME280;11074;48.596;9.238;2023-05-03T06:27:17;99045.69;;;11.40;81.20
21824;BME280;11074;48.596;9.238;2023-05-03T06:29:43;99044.78;;;11.46;81.11
21824;BME280;11074;48.596;9.238;2023-05-03T06:32:09;99040.66;;;11.55;82.05
21824;BME280;11074;48.596;9.238;2023-05-03T06:34:35;99042.66;;;11.60;81.25
21824;BME280;11074;48.596;9.238;2023-05-03T06:37:02;99037.03;;;11.61;80.89
21824;BME280;11074;48.596;9.238;2023-05-03T06:39:27;99041.25;;;11.69;81.54
21824;BME280;11074;48.596;9.238;2023-05-03T06:41:53;99046.13;;;11.72;81.43
21824;BME280;11074;48.596;9.238;2023-05-03T06:44:19;99046.56;;;11.80;80.83
21824;BME280;11074;48.596;9.238;2023-05-03T06:46:45;99047.47;;;11.86;81.38
21824;BME280;11074;48.596;9.238;2023-05-03T06:49:10;99054.31;;;11.93;81.05
21824;BME280;11074;48.596;9.238;2023-05-03T06:51:36;99046.03;;;11.95;81.20
21824;BME280;11074;48.596;9.238;2023-05-03T06:54:02;99048.59;;;12.01;81.30
21824;BME280;11074;48.596;9.238;2023-05-03T06:56:32;99045.66;;;12.03;80.83
21824;BME280;11074;48.596;9.238;2023-05-03T06:58:58;99047.28;;;12.04;81.49
21824;BME280;11074;48.596;9.238;2023-05-03T07:01:25;99053.22;;;12.06;80.87
21824;BME280;11074;48.596;9.238;2023-05-03T07:03:51;99051.44;;;12.11;80.31
21824;BME280;11074;48.596;9.238;2023-05-03T07:06:17;99049.59;;;12.12;80.65
21824;BME280;11074;48.596;9.238;2023-05-03T07:08:43;99042.59;;;12.11;81.59
21824;BME280;11074;48.596;9.238;2023-05-03T07:11:09;99036.19;;;12.12;81.20
21824;BME280;11074;48.596;9.238;2023-05-03T07:13:35;99042.47;;;12.18;81.12
21824;BME280;11074;48.596;9.238;2023-05-03T07:16:00;99036.72;;;12.26;80.95
21824;BME280;11074;48.596;9.238;2023-05-03T07:18:26;99033.28;;;12.30;80.59
21824;BME280;11074;48.596;9.238;2023-05-03T07:20:52;99036.31;;;12.34;80.64
21824;BME280;11074;48.596;9.238;2023-05-03T07:23:18;99028.63;;;12.37;80.52
21824;BME280;11074;48.596;9.238;2023-05-03T07:25:44;99016.06;;;12.43;80.37
21824;BME280;11074;48.596;9.238;2023-05-03T07:28:10;99014.00;;;12.45;80.48
21824;BME280;11074;48.596;9.238;2023-05-03T07:30:36;99018.53;;;12.44;81.15
21824;BME280;11074;48.596;9.238;2023-05-03T07:33:02;99020.66;;;12.42;81.38
21824;BME280;11074;48.596;9.238;2023-05-03T07:35:28;99018.53;;;12.44;80.96
21824;BME280;11074;48.596;9.238;2023-05-03T07:37:54;99019.78;;;12.53;80.86
21824;BME280;11074;48.596;9.238;2023-05-03T07:40:21;99014.63;;;12.52;80.69
21824;BME280;11074;48.596;9.238;2023-05-03T07:42:48;99009.25;;;12.52;80.74
21824;BME280;11074;48.596;9.238;2023-05-03T07:45:13;99006.34;;;12.53;80.95
21824;BME280;11074;48.596;9.238;2023-05-03T07:47:39;99009.69;;;12.60;81.03
21824;BME280;11074;48.596;9.238;2023-05-03T07:50:06;99004.78;;;12.57;80.83
21824;BME280;11074;48.596;9.238;2023-05-03T07:52:36;99010.00;;;12.64;80.84
21824;BME280;11074;48.596;9.238;2023-05-03T07:55:02;99006.66;;;12.73;79.70
21824;BME280;11074;48.596;9.238;2023-05-03T07:57:28;99004.31;;;12.77;80.31
21824;BME280;11074;48.596;9.238;2023-05-03T07:59:54;98994.69;;;12.81;80.05
21824;BME280;11074;48.596;9.238;2023-05-03T08:02:20;98999.84;;;12.83;80.36
21824;BME280;11074;48.596;9.238;2023-05-03T08:04:46;98997.72;;;12.85;79.77
21824;BME280;11074;48.596;9.238;2023-05-03T08:07:12;98997.47;;;12.86;80.49
21824;BME280;11074;48.596;9.238;2023-05-03T08:09:38;98985.25;;;12.95;79.10
21824;BME280;11074;48.596;9.238;2023-05-03T08:12:04;98989.06;;;12.99;79.77
21824;BME280;11074;48.596;9.238;2023-05-03T08:14:30;98988.34;;;13.04;79.62
21824;BME280;11074;48.596;9.238;2023-05-03T08:16:56;98983.28;;;13.07;78.82
21824;BME280;11074;48.596;9.238;2023-05-03T08:19:21;98982.31;;;13.13;78.69
21824;BME280;11074;48.596;9.238;2023-05-03T08:21:47;98987.50;;;13.20;78.17
21824;BME280;11074;48.596;9.238;2023-05-03T08:24:13;98988.31;;;13.20;78.35
21824;BME280;11074;48.596;9.238;2023-05-03T08:26:39;98983.25;;;13.24;79.12
21824;BME280;11074;48.596;9.238;2023-05-03T08:29:06;98991.63;;;13.27;77.73
21824;BME280;11074;48.596;9.238;2023-05-03T08:31:31;98985.69;;;13.25;78.70
21824;BME280;11074;48.596;9.238;2023-05-03T08:33:58;98988.75;;;13.34;78.44
21824;BME280;11074;48.596;9.238;2023-05-03T08:36:23;98983.75;;;13.43;79.40
21824;BME280;11074;48.596;9.238;2023-05-03T08:38:49;98984.38;;;13.50;78.59
21824;BME280;11074;48.596;9.238;2023-05-03T08:41:29;98986.38;;;13.59;79.13
21824;BME280;11074;48.596;9.238;2023-05-03T08:43:56;98980.31;;;13.69;78.29
21824;BME280;11074;48.596;9.238;2023-05-03T08:46:23;98986.59;;;13.79;77.61
21824;BME280;11074;48.596;9.238;2023-05-03T08:48:52;98979.69;;;13.83;76.98
21824;BME280;11074;48.596;9.238;2023-05-03T08:51:22;98971.16;;;13.91;76.16
21824;BME280;11074;48.596;9.238;2023-05-03T08:53:48;98978.50;;;14.01;75.85
21824;BME280;11074;48.596;9.238;2023-05-03T08:56:28;98980.41;;;14.06;76.54
21824;BME280;11074;48.596;9.238;2023-05-03T08:58:55;98985.84;;;14.11;77.82
21824;BME280;11074;48.596;9.238;2023-05-03T09:01:21;98979.22;;;14.18;76.39
21824;BME280;11074;48.596;9.238;2023-05-03T09:03:50;98978.69;;;14.21;77.57
21824;BME280;11074;48.596;9.238;2023-05-03T09:06:23;98980.91;;;14.29;76.30
21824;BME280;11074;48.596;9.238;2023-05-03T09:08:53;98982.09;;;14.38;76.54
21824;BME280;11074;48.596;9.238;2023-05-03T09:11:30;98984.31;;;14.46;75.27
21824;BME280;11074;48.596;9.238;2023-05-03T09:14:14;98986.53;;;14.54;74.22
21824;BME280;11074;48.596;9.238;2023-05-03T09:16:43;98988.22;;;14.61;74.38
21824;BME280;11074;48.596;9.238;2023-05-03T09:19:10;98978.53;;;14.65;75.17
21824;BME280;11074;48.596;9.238;2023-05-03T09:21:41;98984.00;;;14.75;74.41
21824;BME280;11074;48.596;9.238;2023-05-03T09:24:16;98975.94;;;14.80;73.38
21824;BME280;11074;48.596;9.238;2023-05-03T09:26:44;98978.09;;;14.78;73.62
21824;BME280;11074;48.596;9.238;2023-05-03T09:29:30;98974.66;;;14.82;73.80
21824;BME280;11074;48.596;9.238;2023-05-03T09:32:04;98973.38;;;14.95;73.48
21824;BME280;11074;48.596;9.238;2023-05-03T09:34:31;98970.44;;;15.01;73.04
21824;BME280;11074;48.596;9.238;2023-05-03T09:36:57;98973.22;;;15.11;73.34
21824;BME280;11074;48.596;9.238;2023-05-03T09:39:23;98961.66;;;15.21;73.62
21824;BME280;11074;48.596;9.238;2023-05-03T09:41:49;98963.56;;;15.31;74.19
21824;BME280;11074;48.596;9.238;2023-05-03T09:44:16;98955.00;;;15.39;73.07
21824;BME280;11074;48.596;9.238;2023-05-03T09:47:03;98960.47;;;15.49;73.04
21824;BME280;11074;48.596;9.238;2023-05-03T09:49:30;98956.97;;;15.53;72.01
21824;BME280;11074;48.596;9.238;2023-05-03T09:51:59;98951.31;;;15.55;71.55
21824;BME280;11074;48.596;9.238;2023-05-03T09:54:25;98954.28;;;15.48;71.71
21824;BME280;11074;48.596;9.238;2023-05-03T09:56:53;98960.75;;;15.57;70.97
21824;BME280;11074;48.596;9.238;2023-05-03T09:59:22;98953.19;;;15.54;70.95
21824;BME280;11074;48.596;9.238;2023-05-03T10:01:52;98946.75;;;15.55;71.49
21824;BME280;11074;48.596;9.238;2023-05-03T10:04:21;98954.59;;;15.62;71.70
21824;BME280;11074;48.596;9.238;2023-05-03T10:06:50;98947.34;;;15.72;70.54
21824;BME280;11074;48.596;9.238;2023-05-03T10:09:25;98950.28;;;15.71;69.89
21824;BME280;11074;48.596;9.238;2023-05-03T10:11:57;98952.19;;;15.75;70.09
21824;BME280;11074;48.596;9.238;2023-05-03T10:14:23;98941.69;;;15.79;70.36
21824;BME280;11074;48.596;9.238;2023-05-03T10:16:58;98947.88;;;15.80;70.48
21824;BME280;11074;48.596;9.238;2023-05-03T10:19:29;98938.44;;;15.82;70.61
21824;BME280;11074;48.596;9.238;2023-05-03T10:22:08;98939.53;;;15.86;70.30
21824;BME280;11074;48.596;9.238;2023-05-03T10:25:05;98936.06;;;15.96;70.14
21824;BME280;11074;48.596;9.238;2023-05-03T10:27:49;98935.53;;;16.04;70.59
21824;BME280;11074;48.596;9.238;2023-05-03T10:35:42;98925.56;;;16.19;68.92
21824;BME280;11074;48.596;9.238;2023-05-03T10:38:25;98922.31;;;16.22;67.92
21824;BME280;11074;48.596;9.238;2023-05-03T10:40:52;98921.50;;;16.27;67.53
21824;BME280;11074;48.596;9.238;2023-05-03T10:46:04;98926.34;;;16.40;67.81
21824;BME280;11074;48.596;9.238;2023-05-03T10:48:32;98925.56;;;16.45;67.01
21824;BME280;11074;48.596;9.238;2023-05-03T10:53:57;98918.81;;;16.67;65.88
21824;BME280;11074;48.596;9.238;2023-05-03T10:56:23;98920.94;;;16.75;65.39
21824;BME280;11074;48.596;9.238;2023-05-03T10:58:49;98911.19;;;16.89;65.22
21824;BME280;11074;48.596;9.238;2023-05-03T11:01:17;98919.81;;;16.96;65.00
21824;BME280;11074;48.596;9.238;2023-05-03T11:04:07;98910.84;;;17.11;64.45
21824;BME280;11074;48.596;9.238;2023-05-03T11:06:39;98904.59;;;17.21;63.33
21824;BME280;11074;48.596;9.238;2023-05-03T11:09:10;98898.88;;;17.27;62.79
21824;BME280;11074;48.596;9.238;2023-05-03T11:11:40;98896.69;;;17.34;62.55
21824;BME280;11074;48.596;9.238;2023-05-03T11:14:07;98896.38;;;17.41;62.57
21824;BME280;11074;48.596;9.238;2023-05-03T11:16:35;98898.25;;;17.55;61.76
21824;BME280;11074;48.596;9.238;2023-05-03T11:19:02;98908.47;;;17.64;61.17
21824;BME280;11074;48.596;9.238;2023-05-03T11:21:28;98892.19;;;17.74;59.20
21824;BME280;11074;48.596;9.238;2023-05-03T11:23:53;98892.66;;;17.81;58.63
21824;BME280;11074;48.596;9.238;2023-05-03T11:26:19;98887.38;;;17.99;59.65
21824;BME280;11074;48.596;9.238;2023-05-03T11:28:50;98887.44;;;18.28;59.07
21824;BME280;11074;48.596;9.238;2023-05-03T11:31:16;98873.56;;;18.35;59.46
21824;BME280;11074;48.596;9.238;2023-05-03T11:33:42;98866.69;;;18.47;59.20
21824;BME280;11074;48.596;9.238;2023-05-03T11:36:08;98872.56;;;18.59;58.66
21824;BME280;11074;48.596;9.238;2023-05-03T11:38:37;98868.06;;;18.73;56.74
21824;BME280;11074;48.596;9.238;2023-05-03T11:41:15;98859.25;;;18.87;56.13
21824;BME280;11074;48.596;9.238;2023-05-03T11:43:47;98867.72;;;19.04;55.95
21824;BME280;11074;48.596;9.238;2023-05-03T11:46:24;98854.25;;;19.17;55.75
21824;BME280;11074;48.596;9.238;2023-05-03T11:48:51;98854.94;;;19.28;56.82
21824;BME280;11074;48.596;9.238;2023-05-03T11:51:22;98851.25;;;19.43;55.21
21824;BME280;11074;48.596;9.238;2023-05-03T11:53:48;98853.97;;;19.43;54.44
21824;BME280;11074;48.596;9.238;2023-05-03T11:56:15;98854.09;;;19.51;54.32
21824;BME280;11074;48.596;9.238;2023-05-03T11:58:51;98860.72;;;19.64;53.70
21824;BME280;11074;48.596;9.238;2023-05-03T12:01:19;98858.34;;;19.76;53.13
21824;BME280;11074;48.596;9.238;2023-05-03T12:03:57;98848.72;;;19.83;51.80
21824;BME280;11074;48.596;9.238;2023-05-03T12:06:23;98858.03;;;19.96;51.62
21824;BME280;11074;48.596;9.238;2023-05-03T12:08:49;98848.97;;;20.19;51.37
21824;BME280;11074;48.596;9.238;2023-05-03T12:11:15;98852.84;;;20.32;50.62
21824;BME280;11074;48.596;9.238;2023-05-03T12:13:41;98836.69;;;20.40;50.65
21824;BME280;11074;48.596;9.238;2023-05-03T12:16:09;98824.63;;;20.60;48.98
21824;BME280;11074;48.596;9.238;2023-05-03T12:18:57;98832.97;;;20.64;49.11
21824;BME280;11074;48.596;9.238;2023-05-03T12:21:47;98828.34;;;20.64;49.47
21824;BME280;11074;48.596;9.238;2023-05-03T12:24:13;98829.16;;;20.65;48.54
21824;BME280;11074;48.596;9.238;2023-05-03T12:26:44;98821.63;;;20.62;48.68
21824;BME280;11074;48.596;9.238;2023-05-03T12:29:11;98816.56;;;20.69;49.15
21824;BME280;11074;48.596;9.238;2023-05-03T12:31:40;98820.31;;;20.86;49.10
21824;BME280;11074;48.596;9.238;2023-05-03T12:34:07;98821.53;;;21.07;48.54
21824;BME280;11074;48.596;9.238;2023-05-03T12:36:33;98815.19;;;21.12;47.01
21824;BME280;11074;48.596;9.238;2023-05-03T12:39:00;98817.56;;;21.27;47.75
21824;BME280;11074;48.596;9.238;2023-05-03T12:41:27;98809.16;;;21.37;46.14
21824;BME280;11074;48.596;9.238;2023-05-03T12:43:57;98814.28;;;21.52;46.56
21824;BME280;11074;48.596;9.238;2023-05-03T12:46:23;98809.28;;;21.68;46.15
21824;BME280;11074;48.596;9.238;2023-05-03T12:48:51;98805.69;;;21.81;45.92
21824;BME280;11074;48.596;9.238;2023-05-03T12:51:17;98807.53;;;21.72;44.96
21824;BME280;11074;48.596;9.238;2023-05-03T12:53:43;98803.41;;;21.74;43.71
21824;BME280;11074;48.596;9.238;2023-05-03T12:56:09;98821.22;;;21.81;44.84
21824;BME280;11074;48.596;9.238;2023-05-03T12:58:35;98808.69;;;21.93;45.16
21824;BME280;11074;48.596;9.238;2023-05-03T13:01:01;98806.00;;;21.80;43.80
21824;BME280;11074;48.596;9.238;2023-05-03T13:03:27;98808.81;;;21.66;43.45
21824;BME280;11074;48.596;9.238;2023-05-03T13:05:53;98806.84;;;21.66;43.19
21824;BME280;11074;48.596;9.238;2023-05-03T13:08:19;98789.22;;;21.64;43.22
21824;BME280;11074;48.596;9.238;2023-05-03T13:10:44;98786.66;;;21.81;43.10
21824;BME280;11074;48.596;9.238;2023-05-03T13:13:10;98791.56;;;21.93;41.67
21824;BME280;11074;48.596;9.238;2023-05-03T13:15:36;98781.22;;;22.03;42.49
21824;BME280;11074;48.596;9.238;2023-05-03T13:18:05;98787.22;;;22.14;43.12
21824;BME280;11074;48.596;9.238;2023-05-03T13:20:31;98778.16;;;22.27;43.27